Time;durP1;ratioP1;P1;durP2;ratioP2;P2;SDS_P1;SDS_P2;PMS_P1;PMS_P2;Temp;Humidity;BMP_temperature;BMP_pressure;BME280_temperature;BME280_humidity;BME280_pressure;Samples;Min_cycle;Max_cycle;Signal;HPM_P1;HPM_P2
2021/08/20 00:02:21;;;;;;;4.85;2.88;;;17.10;99.90;;;;;;5114523;28;20020;-73
2021/08/20 00:04:47;;;;;;;6.38;3.42;;;17.10;99.90;;;;;;5113445;27;20067;-73
2021/08/20 00:07:12;;;;;;;4.85;3.05;;;17.10;99.90;;;;;;5114429;28;20054;-73
2021/08/20 00:09:38;;;;;;;3.83;3.17;;;17.10;99.90;;;;;;5114366;28;20023;-74
2021/08/20 00:12:04;;;;;;;5.40;3.33;;;17.10;99.90;;;;;;5114067;28;20020;-73
2021/08/20 00:14:30;;;;;;;9.20;3.20;;;17.10;99.90;;;;;;5113778;28;20103;-74
2021/08/20 00:16:56;;;;;;;4.80;3.20;;;17.10;99.90;;;;;;5113557;28;20099;-73
2021/08/20 00:19:21;;;;;;;4.95;3.00;;;17.10;99.90;;;;;;5094542;28;20066;-73
2021/08/20 00:21:47;;;;;;;5.30;3.08;;;17.20;99.90;;;;;;5114586;28;20513;-74
2021/08/20 00:24:14;;;;;;;11.98;5.82;;;17.10;99.90;;;;;;5109804;28;20023;-74
2021/08/20 00:26:41;;;;;;;9.13;5.40;;;17.10;99.90;;;;;;5110700;28;20077;-73
2021/08/20 00:29:07;;;;;;;6.70;4.18;;;17.10;99.90;;;;;;5113600;28;20027;-73
2021/08/20 00:31:33;;;;;;;6.13;3.75;;;17.10;99.90;;;;;;5113606;28;20159;-74
2021/08/20 00:33:59;;;;;;;6.45;3.88;;;17.10;99.90;;;;;;5113557;28;20020;-73
2021/08/20 00:36:24;;;;;;;5.85;3.90;;;17.10;99.90;;;;;;5113584;28;20035;-73
2021/08/20 00:38:50;;;;;;;6.45;3.80;;;17.10;99.90;;;;;;5113356;28;20047;-73
2021/08/20 00:41:16;;;;;;;8.85;3.58;;;17.10;99.90;;;;;;5113207;28;20027;-73
2021/08/20 00:43:44;;;;;;;4.53;3.42;;;17.00;99.90;;;;;;5113274;28;20051;-74
2021/08/20 00:46:10;;;;;;;4.05;3.08;;;17.00;99.90;;;;;;5113278;28;20024;-73
2021/08/20 00:48:36;;;;;;;5.30;3.47;;;17.00;99.90;;;;;;5113374;28;20027;-73
2021/08/20 00:51:05;;;;;;;8.50;3.67;;;17.00;99.90;;;;;;5113203;28;20024;-73
2021/08/20 00:53:33;;;;;;;8.45;3.20;;;17.00;99.90;;;;;;5113388;28;20439;-73
2021/08/20 00:56:00;;;;;;;6.40;3.40;;;17.00;99.90;;;;;;5094858;28;20011;-73
2021/08/20 00:58:29;;;;;;;3.85;2.90;;;16.90;99.90;;;;;;5113168;28;20061;-73
2021/08/20 01:00:55;;;;;;;6.68;3.17;;;16.90;99.90;;;;;;5113201;28;20023;-73
2021/08/20 01:03:21;;;;;;;6.95;3.67;;;16.90;99.90;;;;;;5113492;28;20031;-74
2021/08/20 01:05:50;;;;;;;4.55;3.97;;;16.80;99.90;;;;;;5094024;28;20523;-73
2021/08/20 01:08:16;;;;;;;5.45;3.75;;;16.80;99.90;;;;;;5099973;28;20045;-73
2021/08/20 01:10:42;;;;;;;5.55;3.70;;;16.70;99.90;;;;;;5112983;28;20024;-73
2021/08/20 01:13:08;;;;;;;5.45;3.70;;;16.60;99.90;;;;;;5112886;28;20105;-73
2021/08/20 01:15:33;;;;;;;4.68;3.72;;;16.60;99.90;;;;;;5112740;28;20056;-73
2021/08/20 01:17:59;;;;;;;5.00;4.05;;;16.50;99.90;;;;;;5111514;28;20417;-74
2021/08/20 01:20:24;;;;;;;4.90;3.90;;;16.50;99.90;;;;;;5089702;28;20012;-74
2021/08/20 01:22:50;;;;;;;8.07;3.88;;;16.40;99.90;;;;;;5107711;28;20034;-74
2021/08/20 01:25:16;;;;;;;7.57;3.95;;;16.40;99.90;;;;;;5093482;28;20047;-75
2021/08/20 01:27:41;;;;;;;5.97;3.95;;;16.30;99.90;;;;;;5107204;28;20066;-74
2021/08/20 01:30:07;;;;;;;7.25;4.20;;;16.30;99.90;;;;;;5107198;28;20034;-74
2021/08/20 01:32:33;;;;;;;5.32;3.75;;;16.30;99.90;;;;;;5107282;28;20410;-74
2021/08/20 01:34:59;;;;;;;5.50;4.25;;;16.20;99.90;;;;;;5089219;28;20045;-74
2021/08/20 01:37:25;;;;;;;6.10;4.68;;;16.10;99.90;;;;;;5107708;28;20023;-74
2021/08/20 01:39:50;;;;;;;5.72;4.03;;;16.10;99.90;;;;;;5089793;28;20023;-74
2021/08/20 01:42:16;;;;;;;7.47;4.05;;;16.10;99.90;;;;;;5107296;28;20072;-74
2021/08/20 01:44:42;;;;;;;5.68;4.40;;;16.10;99.90;;;;;;5106895;28;20498;-74
2021/08/20 01:47:11;;;;;;;6.50;3.92;;;16.10;99.90;;;;;;5107346;28;20045;-75
2021/08/20 01:49:38;;;;;;;6.53;3.75;;;16.00;99.90;;;;;;5107345;28;20034;-74
2021/08/20 01:52:05;;;;;;;4.45;3.80;;;16.00;99.90;;;;;;5107171;28;20027;-74
2021/08/20 01:54:31;;;;;;;6.57;4.10;;;16.00;99.90;;;;;;5106967;28;20020;-74
2021/08/20 01:56:59;;;;;;;7.03;4.03;;;16.00;99.90;;;;;;5109607;28;20502;-73
2021/08/20 01:59:25;;;;;;;6.38;3.90;;;16.10;99.90;;;;;;5094130;28;20372;-73
2021/08/20 02:01:50;;;;;;;4.80;3.80;;;16.00;99.90;;;;;;5112745;28;20035;-73
2021/08/20 02:04:16;;;;;;;5.75;3.33;;;16.00;99.90;;;;;;5090871;28;20036;-73
2021/08/20 02:06:41;;;;;;;6.40;3.67;;;16.00;99.90;;;;;;5103519;28;20026;-73
2021/08/20 02:09:07;;;;;;;5.88;3.20;;;15.90;99.90;;;;;;5112592;28;20019;-73
2021/08/20 02:11:33;;;;;;;5.97;3.60;;;15.90;99.90;;;;;;5094294;28;20027;-73
2021/08/20 02:13:58;;;;;;;6.53;3.17;;;15.90;99.90;;;;;;5112460;28;20098;-73
2021/08/20 02:16:24;;;;;;;4.47;3.33;;;15.90;99.90;;;;;;5112467;28;20020;-74
2021/08/20 02:18:49;;;;;;;6.40;3.30;;;15.90;99.90;;;;;;5099470;28;20020;-74
2021/08/20 02:21:15;;;;;;;6.22;3.20;;;15.90;99.90;;;;;;5111627;28;20020;-73
2021/08/20 02:23:41;;;;;;;6.70;3.20;;;15.90;99.90;;;;;;5112361;28;20020;-73
2021/08/20 02:26:07;;;;;;;6.35;3.63;;;15.80;99.90;;;;;;5112777;28;20088;-73
2021/08/20 02:28:33;;;;;;;5.15;3.00;;;15.80;99.90;;;;;;5096322;28;20375;-73
2021/08/20 02:30:58;;;;;;;5.40;3.05;;;15.70;99.90;;;;;;5115981;28;20024;-73
2021/08/20 02:33:24;;;;;;;4.57;3.38;;;15.80;99.90;;;;;;5098036;28;20321;-73
2021/08/20 02:35:49;;;;;;;5.78;3.38;;;15.80;99.90;;;;;;5116511;28;20043;-73
2021/08/20 02:38:15;;;;;;;5.50;2.97;;;15.70;99.90;;;;;;5116278;28;20349;-73
2021/08/20 02:40:41;;;;;;;5.60;3.13;;;15.80;99.90;;;;;;5116377;28;20465;-73
2021/08/20 02:43:06;;;;;;;5.65;3.20;;;15.70;99.90;;;;;;5116354;28;20030;-73
2021/08/20 02:45:32;;;;;;;5.32;3.40;;;15.70;99.90;;;;;;5112371;28;20475;-75
2021/08/20 02:47:57;;;;;;;6.78;3.45;;;15.70;99.90;;;;;;5112239;28;20036;-74
2021/08/20 02:50:23;;;;;;;5.75;3.60;;;15.70;99.90;;;;;;5111671;28;20028;-74
2021/08/20 02:52:49;;;;;;;5.75;3.30;;;15.70;99.90;;;;;;5111731;28;20677;-74
2021/08/20 02:55:14;;;;;;;6.18;3.15;;;15.80;99.90;;;;;;5111678;28;20480;-75
2021/08/20 02:57:40;;;;;;;5.53;3.33;;;15.70;99.90;;;;;;5092990;28;20081;-74
2021/08/20 03:00:06;;;;;;;7.63;3.63;;;15.70;99.90;;;;;;5111364;28;20032;-74
2021/08/20 03:02:32;;;;;;;4.90;3.00;;;15.70;99.90;;;;;;5092888;28;20447;-74
2021/08/20 03:04:58;;;;;;;4.82;3.13;;;15.70;99.90;;;;;;5111895;28;20118;-74
2021/08/20 03:07:23;;;;;;;5.05;3.10;;;15.80;99.90;;;;;;5092982;28;20032;-74
2021/08/20 03:09:49;;;;;;;3.70;2.92;;;15.70;99.90;;;;;;5112085;28;20063;-74
2021/08/20 03:12:14;;;;;;;8.15;3.53;;;15.70;99.90;;;;;;5111055;28;20062;-74
2021/08/20 03:14:40;;;;;;;8.02;3.80;;;15.70;99.90;;;;;;5111784;28;20027;-74
2021/08/20 03:17:05;;;;;;;4.82;3.35;;;15.70;99.90;;;;;;5111745;28;20024;-74
2021/08/20 03:19:32;;;;;;;6.50;3.28;;;15.70;99.90;;;;;;5111160;28;20487;-74
2021/08/20 03:21:57;;;;;;;8.25;3.60;;;15.70;99.90;;;;;;5110354;28;20797;-74
2021/08/20 03:24:23;;;;;;;6.30;3.47;;;15.70;99.90;;;;;;5111559;28;20032;-74
2021/08/20 03:26:50;;;;;;;3.90;3.10;;;15.70;99.90;;;;;;5110913;28;20032;-74
2021/08/20 03:29:15;;;;;;;4.15;3.28;;;15.70;99.90;;;;;;5111366;28;20480;-74
2021/08/20 03:31:41;;;;;;;4.93;3.60;;;15.70;99.90;;;;;;5110464;28;20058;-74
2021/08/20 03:34:08;;;;;;;6.95;3.75;;;15.70;99.90;;;;;;5111055;28;20021;-74
2021/08/20 03:36:33;;;;;;;7.80;3.95;;;15.70;99.90;;;;;;5110781;28;20027;-74
2021/08/20 03:38:59;;;;;;;4.50;3.40;;;15.70;99.90;;;;;;5109889;28;20023;-74
2021/08/20 03:41:26;;;;;;;6.85;3.90;;;15.70;99.90;;;;;;5110250;28;20107;-74
2021/08/20 03:43:52;;;;;;;5.47;3.58;;;15.70;99.90;;;;;;5110576;28;20057;-74
2021/08/20 03:46:18;;;;;;;4.68;3.30;;;15.70;99.90;;;;;;5110288;28;20036;-74
2021/08/20 03:48:44;;;;;;;6.03;3.80;;;15.70;99.90;;;;;;5109972;28;20108;-75
2021/08/20 03:51:11;;;;;;;6.53;4.47;;;15.70;99.90;;;;;;5110155;28;20023;-74
2021/08/20 03:53:36;;;;;;;9.23;4.30;;;15.60;99.90;;;;;;5110730;28;20024;-74
2021/08/20 03:56:02;;;;;;;6.55;4.10;;;15.60;99.90;;;;;;5110594;28;20104;-74
2021/08/20 03:58:28;;;;;;;6.28;4.15;;;15.70;99.90;;;;;;5110392;28;20032;-74
2021/08/20 04:00:54;;;;;;;7.22;3.90;;;15.70;99.90;;;;;;5091914;28;20047;-74
2021/08/20 04:03:21;;;;;;;7.53;4.28;;;15.60;99.90;;;;;;5110178;28;20473;-75
2021/08/20 04:05:48;;;;;;;6.57;4.20;;;15.60;99.90;;;;;;5109913;28;20090;-74
2021/08/20 04:08:15;;;;;;;6.82;4.00;;;15.60;99.90;;;;;;5110805;28;20510;-74
2021/08/20 04:10:45;;;;;;;10.95;4.40;;;15.60;99.90;;;;;;5110266;28;20397;-74
2021/08/20 04:13:12;;;;;;;10.45;4.40;;;15.60;99.90;;;;;;5110544;28;20058;-74
2021/08/20 04:15:42;;;;;;;5.40;3.85;;;15.60;99.90;;;;;;5109092;28;20050;-74
2021/08/20 04:18:08;;;;;;;10.00;3.85;;;15.60;99.90;;;;;;5087463;28;20031;-74
2021/08/20 04:20:33;;;;;;;7.68;3.70;;;15.60;99.90;;;;;;5107897;28;20152;-74
2021/08/20 04:23:00;;;;;;;4.93;3.40;;;15.60;99.90;;;;;;5101720;28;20039;-75
2021/08/20 04:25:27;;;;;;;6.55;3.58;;;15.60;99.90;;;;;;5090711;28;20107;-74
2021/08/20 04:27:53;;;;;;;4.78;3.42;;;15.60;99.90;;;;;;5091171;28;20072;-74
2021/08/20 04:30:20;;;;;;;7.10;3.70;;;15.60;99.90;;;;;;5104288;28;20059;-75
2021/08/20 04:32:46;;;;;;;8.60;4.30;;;15.60;99.90;;;;;;5101441;28;20914;-75
2021/08/20 04:35:13;;;;;;;5.95;3.80;;;15.60;99.90;;;;;;5097446;28;20056;-74
2021/08/20 04:37:40;;;;;;;7.15;3.92;;;15.60;99.90;;;;;;5107134;28;20110;-74
2021/08/20 04:40:06;;;;;;;9.95;4.40;;;15.60;99.90;;;;;;5102934;28;20051;-74
2021/08/20 04:42:35;;;;;;;5.75;3.67;;;15.60;99.90;;;;;;5080288;28;20471;-74
2021/08/20 04:45:01;;;;;;;5.72;4.30;;;15.60;99.90;;;;;;5101153;28;20447;-74
2021/08/20 04:47:26;;;;;;;6.32;3.88;;;15.70;99.90;;;;;;5088202;28;20039;-74
2021/08/20 04:49:52;;;;;;;8.27;4.10;;;15.70;99.90;;;;;;5099843;28;20077;-73
2021/08/20 04:52:19;;;;;;;6.63;4.10;;;15.70;99.90;;;;;;5088078;28;20093;-73
2021/08/20 04:54:45;;;;;;;5.38;4.25;;;15.70;99.90;;;;;;5098775;28;20023;-74
2021/08/20 04:57:10;;;;;;;6.40;4.93;;;15.70;99.90;;;;;;5100059;28;20055;-74
2021/08/20 04:59:36;;;;;;;6.80;4.47;;;15.70;99.90;;;;;;5102535;28;20030;-74
2021/08/20 05:02:02;;;;;;;6.68;4.72;;;15.70;99.90;;;;;;5105986;28;20027;-74
2021/08/20 05:04:28;;;;;;;9.57;5.00;;;15.70;99.90;;;;;;5089427;28;20051;-74
2021/08/20 05:06:54;;;;;;;6.82;4.32;;;15.70;99.90;;;;;;5102372;28;20031;-74
2021/08/20 05:09:20;;;;;;;9.57;5.15;;;15.70;99.90;;;;;;5105861;28;20121;-74
2021/08/20 05:11:45;;;;;;;6.28;4.95;;;15.70;99.90;;;;;;5108003;28;20110;-72
2021/08/20 05:14:11;;;;;;;6.70;5.07;;;15.80;99.90;;;;;;5113253;28;20081;-73
2021/08/20 05:16:37;;;;;;;8.45;5.40;;;15.80;99.90;;;;;;5113487;28;20030;-72
2021/08/20 05:19:02;;;;;;;9.48;5.95;;;15.80;99.90;;;;;;5103771;28;20103;-72
2021/08/20 05:21:28;;;;;;;7.35;6.00;;;15.90;99.90;;;;;;5113209;28;20123;-72
2021/08/20 05:23:53;;;;;;;8.05;6.45;;;15.90;99.90;;;;;;5095143;28;20026;-73
2021/08/20 05:26:19;;;;;;;6.68;5.43;;;15.90;99.90;;;;;;5110325;28;20072;-75
2021/08/20 05:28:44;;;;;;;7.88;5.85;;;16.00;99.90;;;;;;5106986;28;20084;-75
2021/08/20 05:31:10;;;;;;;11.52;5.70;;;16.00;99.90;;;;;;5111835;28;20379;-75
2021/08/20 05:33:35;;;;;;;11.50;5.30;;;16.00;99.90;;;;;;5106592;28;20439;-75
2021/08/20 05:36:01;;;;;;;9.15;5.35;;;16.00;99.90;;;;;;5094053;28;20397;-73
2021/08/20 05:38:27;;;;;;;6.40;4.78;;;16.10;99.90;;;;;;5092282;28;20027;-74
2021/08/20 05:40:53;;;;;;;5.97;4.90;;;16.10;99.90;;;;;;5107373;28;20178;-75
2021/08/20 05:43:18;;;;;;;7.40;5.43;;;16.20;99.90;;;;;;5103289;28;20034;-75
2021/08/20 05:45:44;;;;;;;8.82;5.93;;;16.20;99.90;;;;;;5106473;28;20028;-75
2021/08/20 05:48:11;;;;;;;7.95;5.00;;;16.30;99.90;;;;;;5104099;28;20031;-74
2021/08/20 05:50:37;;;;;;;7.70;5.22;;;16.30;99.90;;;;;;5103434;28;20035;-75
2021/08/20 05:53:03;;;;;;;9.00;5.45;;;16.30;99.90;;;;;;5103812;28;20028;-74
2021/08/20 05:55:31;;;;;;;6.93;4.43;;;16.40;99.90;;;;;;5103476;28;20032;-75
2021/08/20 05:57:57;;;;;;;6.82;5.40;;;16.40;99.90;;;;;;5103991;28;20027;-75
2021/08/20 06:00:23;;;;;;;9.02;7.45;;;16.50;99.90;;;;;;5087150;28;20031;-73
2021/08/20 06:02:49;;;;;;;9.70;6.57;;;16.50;99.90;;;;;;5099822;28;20027;-73
2021/08/20 06:05:14;;;;;;;8.68;5.32;;;16.50;99.90;;;;;;5117153;28;20051;-73
2021/08/20 06:07:40;;;;;;;8.75;6.20;;;16.60;99.90;;;;;;5117305;28;20425;-73
2021/08/20 06:10:07;;;;;;;9.63;5.70;;;16.60;99.90;;;;;;5111082;28;20100;-74
2021/08/20 06:12:33;;;;;;;9.02;5.53;;;16.70;99.90;;;;;;5116063;28;20027;-75
2021/08/20 06:15:00;;;;;;;6.28;5.68;;;16.70;99.90;;;;;;5107872;28;20043;-75
2021/08/20 06:17:26;;;;;;;8.77;6.68;;;16.70;99.90;;;;;;5113612;28;20415;-73
2021/08/20 06:19:51;;;;;;;8.18;6.05;;;16.80;99.90;;;;;;5116916;28;20226;-73
2021/08/20 06:22:18;;;;;;;10.80;6.55;;;16.80;99.90;;;;;;5116506;28;20035;-73
2021/08/20 06:24:44;;;;;;;8.60;5.93;;;16.90;99.90;;;;;;5094339;28;20038;-73
2021/08/20 06:27:09;;;;;;;8.50;5.68;;;17.10;99.90;;;;;;5116806;28;20032;-73
2021/08/20 06:29:35;;;;;;;10.52;6.03;;;17.20;99.90;;;;;;5116194;28;20034;-75
2021/08/20 06:32:01;;;;;;;7.82;5.90;;;17.30;99.90;;;;;;5107766;28;20472;-75
2021/08/20 06:34:27;;;;;;;10.60;6.25;;;17.40;99.90;;;;;;5106966;28;20524;-75
2021/08/20 06:36:52;;;;;;;11.55;6.50;;;17.50;99.90;;;;;;5095693;28;20028;-75
2021/08/20 06:39:18;;;;;;;10.30;6.72;;;17.50;99.90;;;;;;5113347;28;20362;-73
2021/08/20 06:41:43;;;;;;;8.05;6.97;;;17.60;99.90;;;;;;5114109;28;20463;-75
2021/08/20 06:44:13;;;;;;;8.07;6.72;;;17.60;99.90;;;;;;5107466;28;20174;-75
2021/08/20 06:46:40;;;;;;;9.32;6.78;;;17.70;99.90;;;;;;5106049;28;20039;-75
2021/08/20 06:49:07;;;;;;;9.18;5.88;;;17.80;99.90;;;;;;5107699;28;20032;-75
2021/08/20 06:51:33;;;;;;;7.07;5.55;;;17.80;99.90;;;;;;5106410;28;20576;-75
2021/08/20 06:53:59;;;;;;;9.02;5.72;;;17.90;99.90;;;;;;5105825;27;20040;-75
2021/08/20 06:56:24;;;;;;;6.45;5.38;;;17.90;99.90;;;;;;5087085;28;20106;-75
2021/08/20 06:58:50;;;;;;;8.57;5.47;;;17.90;99.90;;;;;;5106979;28;20749;-75
2021/08/20 07:01:16;;;;;;;7.18;5.45;;;18.00;99.90;;;;;;5107191;28;20038;-75
2021/08/20 07:03:42;;;;;;;9.65;5.65;;;18.10;99.90;;;;;;5098691;28;20031;-75
2021/08/20 07:06:07;;;;;;;7.93;5.10;;;18.20;99.90;;;;;;5114549;28;20105;-74
2021/08/20 07:08:33;;;;;;;7.38;4.90;;;18.20;99.90;;;;;;5102084;28;20036;-73
2021/08/20 07:10:59;;;;;;;7.13;5.57;;;18.30;99.90;;;;;;5113609;28;20028;-73
2021/08/20 07:13:24;;;;;;;7.35;5.00;;;18.40;99.90;;;;;;5099459;28;20028;-73
2021/08/20 07:15:50;;;;;;;7.18;5.10;;;18.40;99.90;;;;;;5111680;28;20024;-73
2021/08/20 07:18:16;;;;;;;8.05;5.38;;;18.40;99.90;;;;;;5115352;28;20020;-73
2021/08/20 07:20:41;;;;;;;9.43;5.18;;;18.50;99.90;;;;;;5115060;28;20028;-75
2021/08/20 07:23:07;;;;;;;8.32;5.38;;;18.60;99.90;;;;;;5105374;28;20365;-75
2021/08/20 07:25:32;;;;;;;8.13;5.18;;;18.70;99.90;;;;;;5087930;28;20027;-75
2021/08/20 07:27:58;;;;;;;6.65;5.10;;;18.80;99.90;;;;;;5106103;28;20031;-76
2021/08/20 07:30:24;;;;;;;7.43;5.50;;;18.90;99.90;;;;;;5106913;28;20430;-74
2021/08/20 07:32:49;;;;;;;6.10;5.38;;;18.90;99.90;;;;;;5099500;28;20150;-75
2021/08/20 07:35:15;;;;;;;8.18;5.32;;;19.00;99.90;;;;;;5097648;28;20464;-74
2021/08/20 07:37:42;;;;;;;6.55;5.20;;;19.00;99.90;;;;;;5092990;28;20128;-75
2021/08/20 07:40:09;;;;;;;10.07;5.97;;;19.00;99.90;;;;;;5080397;28;20156;-75
2021/08/20 07:42:35;;;;;;;6.70;5.50;;;19.00;99.90;;;;;;5077615;28;20529;-75
2021/08/20 07:45:01;;;;;;;7.40;5.70;;;19.10;99.90;;;;;;5103726;28;20416;-74
2021/08/20 07:47:27;;;;;;;6.00;5.07;;;19.20;99.90;;;;;;5098675;28;20032;-75
2021/08/20 07:49:53;;;;;;;9.10;5.57;;;19.20;99.90;;;;;;5090783;28;20419;-75
2021/08/20 07:52:18;;;;;;;6.63;5.07;;;19.30;99.90;;;;;;5097026;28;20103;-75
2021/08/20 07:54:44;;;;;;;7.95;5.57;;;19.30;99.90;;;;;;5094972;28;20028;-75
2021/08/20 07:57:09;;;;;;;8.02;5.20;;;19.50;99.90;;;;;;5084081;28;20039;-75
2021/08/20 07:59:35;;;;;;;7.88;5.22;;;19.60;99.90;;;;;;5105932;28;20051;-75
2021/08/20 08:02:00;;;;;;;6.65;5.05;;;19.70;99.90;;;;;;5106192;28;20066;-75
2021/08/20 08:04:26;;;;;;;7.13;5.32;;;19.70;99.90;;;;;;5106759;28;20043;-74
2021/08/20 08:06:52;;;;;;;7.47;5.28;;;19.80;99.90;;;;;;5106355;28;20062;-75
2021/08/20 08:09:17;;;;;;;6.18;4.93;;;19.80;99.90;;;;;;5087420;28;20051;-75
2021/08/20 08:11:43;;;;;;;8.18;5.35;;;19.80;99.90;;;;;;5106559;28;20069;-74
2021/08/20 08:14:09;;;;;;;7.50;5.45;;;19.90;99.90;;;;;;5087065;28;20031;-74
2021/08/20 08:16:37;;;;;;;8.15;4.82;;;19.80;99.90;;;;;;5105313;28;20019;-75
2021/08/20 08:19:05;;;;;;;10.05;5.03;;;20.00;99.90;;;;;;5104722;28;20060;-74
2021/08/20 08:21:32;;;;;;;6.57;4.63;;;20.00;99.90;;;;;;5105400;28;20031;-74
2021/08/20 08:23:58;;;;;;;8.30;5.30;;;20.10;99.90;;;;;;5087487;28;20039;-74
2021/08/20 08:26:25;;;;;;;6.45;4.85;;;20.10;99.90;;;;;;5105001;28;20043;-74
2021/08/20 08:28:53;;;;;;;8.45;5.05;;;20.10;99.90;;;;;;5105216;28;20029;-74
2021/08/20 08:31:19;;;;;;;7.90;4.28;;;20.20;99.90;;;;;;5106908;28;20475;-74
2021/08/20 08:33:44;;;;;;;9.05;4.68;;;20.20;99.90;;;;;;5105117;28;20027;-74
2021/08/20 08:36:10;;;;;;;8.80;4.72;;;20.20;99.90;;;;;;5105189;28;20024;-74
2021/08/20 08:38:36;;;;;;;8.63;4.88;;;20.10;99.90;;;;;;5106357;28;20414;-74
2021/08/20 08:41:02;;;;;;;7.70;4.85;;;19.90;99.90;;;;;;5105638;28;20181;-74
2021/08/20 08:43:28;;;;;;;5.72;3.97;;;19.90;99.90;;;;;;5105591;28;20031;-73
2021/08/20 08:45:54;;;;;;;7.40;4.60;;;19.80;99.90;;;;;;5103717;28;20028;-74
2021/08/20 08:48:21;;;;;;;8.48;4.95;;;19.80;99.90;;;;;;5073163;28;20072;-74
2021/08/20 08:50:48;;;;;;;8.32;6.47;;;19.80;99.90;;;;;;5097207;28;20069;-74
2021/08/20 08:53:17;;;;;;;9.32;5.55;;;19.80;99.90;;;;;;5080601;28;20674;-76
2021/08/20 08:55:47;;;;;;;5.93;4.63;;;19.80;99.90;;;;;;5091206;28;20081;-75
2021/08/20 08:58:13;;;;;;;7.25;5.13;;;19.90;99.90;;;;;;5092873;28;20019;-75
2021/08/20 09:00:39;;;;;;;7.68;5.70;;;19.90;99.90;;;;;;5089007;28;20035;-75
2021/08/20 09:03:05;;;;;;;7.00;4.90;;;20.00;99.90;;;;;;5094889;28;20930;-75
2021/08/20 09:05:44;;;;;;;8.15;4.85;;;20.20;99.90;;;;;;5104365;28;20048;-75
2021/08/20 09:08:18;;;;;;;7.88;4.90;;;20.40;99.90;;;;;;5104928;28;20028;-75
2021/08/20 09:10:58;;;;;;;6.57;4.60;;;20.40;99.90;;;;;;5086033;28;20023;-75
2021/08/20 09:13:25;;;;;;;6.35;4.70;;;20.70;99.90;;;;;;5103486;28;20104;-75
2021/08/20 09:16:39;;;;;;;6.68;4.90;;;20.90;99.90;;;;;;5104562;28;20035;-76
2021/08/20 09:19:12;;;;;;;6.78;4.60;;;21.10;99.90;;;;;;4993216;28;20026;-74
2021/08/20 09:21:39;;;;;;;7.82;5.50;;;21.20;99.90;;;;;;5106385;28;20035;-74
2021/08/20 09:24:31;;;;;;;7.63;4.25;;;21.40;99.90;;;;;;5094609;28;20107;-74
2021/08/20 09:27:15;;;;;;;7.57;4.90;;;21.60;99.90;;;;;;5097828;28;20047;-73
2021/08/20 09:30:14;;;;;;;7.60;4.45;;;21.90;99.90;;;;;;5103883;28;20077;-75
2021/08/20 09:32:52;;;;;;;5.72;4.00;;;22.00;99.90;;;;;;5088471;28;20046;-77
2021/08/20 09:35:18;;;;;;;5.10;3.90;;;22.10;99.90;;;;;;5108393;28;20055;-81
2021/08/20 09:37:44;;;;;;;8.35;4.03;;;22.10;99.90;;;;;;5108764;28;20043;-76
2021/08/20 09:40:15;;;;;;;7.32;3.97;;;22.20;99.90;;;;;;5107146;28;20031;-76
2021/08/20 09:42:41;;;;;;;6.18;4.30;;;22.40;99.90;;;;;;5107864;28;20118;-76
2021/08/20 09:45:21;;;;;;;5.63;4.05;;;22.30;99.90;;;;;;5090395;28;20482;-79
2021/08/20 09:47:50;;;;;;;5.90;3.40;;;22.50;99.90;;;;;;5108514;28;20020;-76
2021/08/20 09:50:20;;;;;;;5.55;3.38;;;22.80;99.90;;;;;;5087694;28;20036;-76
2021/08/20 09:52:49;;;;;;;3.92;2.90;;;22.90;99.90;;;;;;5089957;28;20036;-75
2021/08/20 09:55:37;;;;;;;7.57;4.07;;;23.00;99.90;;;;;;5113052;28;20104;-74
2021/08/20 09:58:07;;;;;;;7.15;3.67;;;23.40;99.90;;;;;;5109822;28;20363;-74
2021/08/20 10:00:37;;;;;;;7.78;3.55;;;23.40;99.90;;;;;;5113707;28;20026;-74
2021/08/20 10:03:07;;;;;;;5.32;3.30;;;23.40;99.90;;;;;;5113614;28;20363;-74
2021/08/20 10:05:34;;;;;;;3.88;2.65;;;23.40;99.90;;;;;;5091944;28;20071;-76
2021/08/20 10:08:01;;;;;;;4.20;2.70;;;23.10;99.90;;;;;;5097816;28;20075;-76
2021/08/20 10:10:29;;;;;;;4.50;2.55;;;23.00;99.90;;;;;;5089476;28;20095;-74
2021/08/20 10:12:57;;;;;;;4.38;2.30;;;22.80;99.90;;;;;;5089707;28;20158;-82
2021/08/20 10:15:24;;;;;;;3.97;2.25;;;23.00;99.90;;;;;;5093355;28;20024;-75
2021/08/20 10:17:50;;;;;;;4.43;2.70;;;23.30;99.90;;;;;;5073566;28;20031;-75
2021/08/20 10:20:16;;;;;;;3.40;2.20;;;23.80;99.90;;;;;;5100243;28;20032;-74
2021/08/20 10:22:44;;;;;;;4.05;2.45;;;24.00;99.90;;;;;;5103442;28;20024;-74
2021/08/20 10:25:09;;;;;;;4.50;2.50;;;24.00;99.90;;;;;;5106241;28;20035;-73
2021/08/20 10:27:38;;;;;;;4.55;2.40;;;23.80;99.90;;;;;;5106069;28;20039;-74
2021/08/20 10:30:07;;;;;;;5.05;2.70;;;23.60;99.90;;;;;;5106364;28;20073;-77
2021/08/20 10:32:35;;;;;;;3.75;2.53;;;23.30;99.90;;;;;;5106142;28;20577;-75
2021/08/20 10:35:02;;;;;;;5.55;2.75;;;23.30;99.90;;;;;;5105576;28;20099;-76
2021/08/20 10:37:31;;;;;;;3.90;2.70;;;23.30;99.90;;;;;;5106547;28;20051;-75
2021/08/20 10:40:13;;;;;;;5.32;2.63;;;23.60;99.90;;;;;;5088024;28;20024;-73
2021/08/20 10:42:41;;;;;;;4.22;2.50;;;23.80;99.90;;;;;;5105723;28;20031;-74
2021/08/20 10:45:09;;;;;;;5.20;2.60;;;23.90;99.90;;;;;;5105393;28;20027;-73
2021/08/20 10:47:35;;;;;;;3.60;2.80;;;23.90;99.90;;;;;;5106125;28;20146;-79
2021/08/20 10:50:14;;;;;;;4.53;2.58;;;24.00;99.90;;;;;;5106388;28;20039;-75
2021/08/20 10:52:47;;;;;;;5.65;2.50;;;24.00;99.90;;;;;;5105965;28;20088;-75
2021/08/20 10:55:34;;;;;;;3.20;2.42;;;24.10;99.90;;;;;;5103643;28;20540;-74
2021/08/20 10:58:05;;;;;;;5.47;2.45;;;24.20;99.90;;;;;;5106596;28;20059;-79
2021/08/20 11:00:35;;;;;;;3.40;2.22;;;24.50;99.90;;;;;;5106833;28;20020;-74
2021/08/20 11:03:05;;;;;;;3.17;2.03;;;24.80;99.90;;;;;;5106728;28;20501;-74
2021/08/20 11:05:36;;;;;;;2.65;2.00;;;25.10;99.90;;;;;;5106278;28;20059;-75
2021/08/20 11:08:02;;;;;;;4.03;2.50;;;25.30;99.90;;;;;;5104441;28;20405;-75
2021/08/20 11:10:28;;;;;;;4.40;2.17;;;25.60;99.90;;;;;;5074759;28;20140;-75
2021/08/20 11:12:53;;;;;;;3.10;2.22;;;25.70;99.90;;;;;;5098405;28;20023;-75
2021/08/20 11:15:27;;;;;;;4.72;2.40;;;25.90;99.90;;;;;;5105613;28;20040;-74
2021/08/20 11:17:59;;;;;;;2.97;2.20;;;26.10;99.90;;;;;;5104677;28;20106;-78
2021/08/20 11:20:37;;;;;;;3.42;2.03;;;26.50;99.90;;;;;;5103043;28;20250;-78
2021/08/20 11:23:09;;;;;;;4.22;2.30;;;26.60;99.90;;;;;;5105603;28;20042;-78
2021/08/20 11:25:56;;;;;;;3.20;2.20;;;26.30;99.90;;;;;;5106045;28;20087;-78
2021/08/20 11:28:32;;;;;;;3.55;2.03;;;26.10;99.90;;;;;;5101447;28;20031;-78
2021/08/20 11:31:08;;;;;;;4.38;2.00;;;25.70;99.90;;;;;;5092947;28;20395;-79
2021/08/20 11:33:35;;;;;;;4.18;2.40;;;25.30;99.90;;;;;;5095935;28;20034;-79
2021/08/20 11:36:06;;;;;;;5.07;2.30;;;25.00;99.90;;;;;;5098060;28;20077;-78
2021/08/20 11:38:42;;;;;;;2.70;2.08;;;24.60;99.90;;;;;;5096856;28;20034;-79
2021/08/20 11:41:12;;;;;;;3.63;2.47;;;24.40;99.90;;;;;;5100139;28;20023;-79
2021/08/20 11:43:45;;;;;;;3.40;2.20;;;24.30;99.90;;;;;;5103418;28;20722;-79
2021/08/20 11:46:11;;;;;;;3.88;2.78;;;24.40;99.90;;;;;;5099977;28;20051;-78
2021/08/20 11:48:50;;;;;;;13.70;12.48;;;24.50;99.90;;;;;;5101740;28;20035;-78
2021/08/20 11:51:25;;;;;;;4.18;2.63;;;24.70;99.90;;;;;;5100896;28;20032;-78
2021/08/20 11:53:51;;;;;;;3.53;2.40;;;24.70;99.90;;;;;;5104054;28;20027;-78
2021/08/20 11:56:18;;;;;;;2.80;2.15;;;24.90;99.90;;;;;;5106366;28;20028;-78
2021/08/20 11:58:44;;;;;;;4.22;2.13;;;24.80;99.90;;;;;;5106868;28;20023;-78
2021/08/20 12:01:34;;;;;;;4.30;2.40;;;25.00;99.90;;;;;;5100101;28;20020;-78
2021/08/20 12:04:00;;;;;;;5.05;2.20;;;25.00;99.90;;;;;;5085303;28;20027;-78
2021/08/20 12:06:28;;;;;;;4.30;2.42;;;25.30;99.90;;;;;;5102765;28;20475;-78
2021/08/20 12:08:57;;;;;;;4.97;2.50;;;25.50;99.90;;;;;;5105156;28;20152;-78
2021/08/20 12:11:24;;;;;;;3.30;2.30;;;25.50;99.90;;;;;;5109995;28;20024;-77
2021/08/20 12:13:53;;;;;;;2.85;2.10;;;25.70;99.90;;;;;;5107193;28;20609;-78
2021/08/20 12:16:41;;;;;;;3.42;2.17;;;25.70;99.90;;;;;;5106837;28;20182;-78
2021/08/20 12:19:41;;;;;;;3.03;2.17;;;25.70;99.90;;;;;;5111108;28;20053;-78
2021/08/20 12:22:09;;;;;;;2.35;1.85;;;25.50;99.90;;;;;;5102687;28;20036;-78
2021/08/20 12:24:36;;;;;;;3.15;2.00;;;25.30;99.90;;;;;;5109587;28;20024;-78
2021/08/20 12:27:16;;;;;;;4.40;2.40;;;25.20;99.90;;;;;;5108468;28;20469;-78
2021/08/20 12:29:58;;;;;;;2.58;2.20;;;25.10;99.90;;;;;;5092475;28;20030;-78
2021/08/20 12:32:29;;;;;;;4.20;2.10;;;25.10;99.90;;;;;;5089804;28;20335;-77
2021/08/20 12:35:01;;;;;;;7.18;2.65;;;25.10;99.90;;;;;;5112043;28;20069;-77
2021/08/20 12:37:28;;;;;;;3.67;2.20;;;25.20;99.90;;;;;;5096061;28;20020;-79
2021/08/20 12:40:13;;;;;;;3.38;2.72;;;25.20;99.90;;;;;;5102030;28;20059;-79
2021/08/20 12:42:44;;;;;;;5.18;2.47;;;25.30;99.90;;;;;;5102268;28;20776;-80
2021/08/20 12:45:20;;;;;;;5.13;2.33;;;25.50;99.90;;;;;;5097920;28;20032;-80
2021/08/20 12:48:09;;;;;;;3.85;2.50;;;25.70;99.90;;;;;;5100405;28;20032;-80
2021/08/20 12:50:37;;;;;;;3.08;2.05;;;25.80;99.90;;;;;;5104415;28;20020;-79